sensor_id;sensor_type;location;lat;lon;timestamp;pressure;altitude;pressure_sealevel;temperature;humidity
51313;BME280;37397;53.226;10.400;2023-04-02T00:05:28;101046.28;;;5.89;65.08
51313;BME280;37397;53.226;10.400;2023-04-02T00:08:01;101043.09;;;5.87;65.02
51313;BME280;37397;53.226;10.400;2023-04-02T00:10:31;101053.63;;;5.86;64.93
51313;BME280;37397;53.226;10.400;2023-04-02T00:13:17;101044.06;;;5.80;65.02
51313;BME280;37397;53.226;10.400;2023-04-02T00:15:47;101054.97;;;5.81;65.37
51313;BME280;37397;53.226;10.400;2023-04-02T00:18:20;101055.41;;;5.80;64.78
51313;BME280;37397;53.226;10.400;2023-04-02T00:20:54;101067.50;;;5.80;64.89
51313;BME280;37397;53.226;10.400;2023-04-02T00:23:21;101067.16;;;5.78;65.17
51313;BME280;37397;53.226;10.400;2023-04-02T00:25:48;101074.06;;;5.77;65.19
51313;BME280;37397;53.226;10.400;2023-04-02T00:28:17;101085.75;;;5.79;64.79
51313;BME280;37397;53.226;10.400;2023-04-02T00:30:57;101083.34;;;5.78;65.03
51313;BME280;37397;53.226;10.400;2023-04-02T00:33:29;101084.69;;;5.73;64.86
51313;BME280;37397;53.226;10.400;2023-04-02T00:35:56;101083.09;;;5.72;65.25
51313;BME280;37397;53.226;10.400;2023-04-02T00:38:29;101087.88;;;5.75;65.03
51313;BME280;37397;53.226;10.400;2023-04-02T00:41:05;101083.88;;;5.73;65.10
51313;BME280;37397;53.226;10.400;2023-04-02T00:43:36;101093.19;;;5.73;64.93
51313;BME280;37397;53.226;10.400;2023-04-02T00:46:10;101104.97;;;5.72;64.85
51313;BME280;37397;53.226;10.400;2023-04-02T00:49:00;101095.28;;;5.69;65.25
51313;BME280;37397;53.226;10.400;2023-04-02T00:51:34;101112.63;;;5.71;64.99
51313;BME280;37397;53.226;10.400;2023-04-02T00:54:04;101107.41;;;5.70;65.18
51313;BME280;37397;53.226;10.400;2023-04-02T00:56:43;101107.50;;;5.66;64.74
51313;BME280;37397;53.226;10.400;2023-04-02T00:59:32;101108.81;;;5.61;64.74
51313;BME280;37397;53.226;10.400;2023-04-02T01:02:20;101119.34;;;5.61;64.47
51313;BME280;37397;53.226;10.400;2023-04-02T01:04:59;101123.31;;;5.63;64.91
51313;BME280;37397;53.226;10.400;2023-04-02T01:19:11;101142.97;;;5.54;64.97
51313;BME280;37397;53.226;10.400;2023-04-02T01:22:04;101149.06;;;5.53;65.10
51313;BME280;37397;53.226;10.400;2023-04-02T01:24:34;101141.00;;;5.51;65.38
51313;BME280;37397;53.226;10.400;2023-04-02T01:27:17;101157.19;;;5.51;65.41
51313;BME280;37397;53.226;10.400;2023-04-02T01:29:50;101162.06;;;5.50;65.29
51313;BME280;37397;53.226;10.400;2023-04-02T01:32:19;101168.97;;;5.49;65.11
51313;BME280;37397;53.226;10.400;2023-04-02T01:34:48;101167.78;;;5.46;65.15
51313;BME280;37397;53.226;10.400;2023-04-02T01:37:37;101168.66;;;5.43;65.22
51313;BME280;37397;53.226;10.400;2023-04-02T01:45:24;101186.44;;;5.44;65.42
51313;BME280;37397;53.226;10.400;2023-04-02T01:47:51;101188.13;;;5.41;65.44
51313;BME280;37397;53.226;10.400;2023-04-02T01:52:47;101185.81;;;5.36;65.81
51313;BME280;37397;53.226;10.400;2023-04-02T01:55:32;101196.75;;;5.34;65.58
51313;BME280;37397;53.226;10.400;2023-04-02T01:58:00;101201.25;;;5.32;65.41
51313;BME280;37397;53.226;10.400;2023-04-02T02:00:30;101208.16;;;5.30;65.52
51313;BME280;37397;53.226;10.400;2023-04-02T02:02:59;101214.16;;;5.33;65.78
51313;BME280;37397;53.226;10.400;2023-04-02T02:05:27;101216.19;;;5.32;65.45
51313;BME280;37397;53.226;10.400;2023-04-02T02:07:55;101219.03;;;5.32;65.65
51313;BME280;37397;53.226;10.400;2023-04-02T02:10:27;101228.38;;;5.29;65.51
51313;BME280;37397;53.226;10.400;2023-04-02T02:12:56;101225.56;;;5.29;65.68
51313;BME280;37397;53.226;10.400;2023-04-02T02:15:26;101225.63;;;5.25;65.99
51313;BME280;37397;53.226;10.400;2023-04-02T02:17:57;101234.91;;;5.26;65.63
51313;BME280;37397;53.226;10.400;2023-04-02T02:20:26;101236.16;;;5.25;65.65
51313;BME280;37397;53.226;10.400;2023-04-02T02:22:53;101229.75;;;5.21;65.77
51313;BME280;37397;53.226;10.400;2023-04-02T02:25:23;101243.47;;;5.22;66.09
51313;BME280;37397;53.226;10.400;2023-04-02T02:27:57;101245.53;;;5.22;65.89
51313;BME280;37397;53.226;10.400;2023-04-02T02:30:31;101249.22;;;5.19;65.95
51313;BME280;37397;53.226;10.400;2023-04-02T02:33:04;101250.00;;;5.19;65.73
51313;BME280;37397;53.226;10.400;2023-04-02T02:35:47;101257.31;;;5.17;65.92
51313;BME280;37397;53.226;10.400;2023-04-02T02:41:32;101265.88;;;5.13;66.01
51313;BME280;37397;53.226;10.400;2023-04-02T02:44:10;101275.97;;;5.14;65.78
51313;BME280;37397;53.226;10.400;2023-04-02T02:46:44;101278.00;;;5.14;66.05
51313;BME280;37397;53.226;10.400;2023-04-02T02:49:20;101279.22;;;5.13;66.02
51313;BME280;37397;53.226;10.400;2023-04-02T02:52:08;101293.03;;;5.10;65.76
51313;BME280;37397;53.226;10.400;2023-04-02T02:54:49;101293.81;;;5.11;66.06
51313;BME280;37397;53.226;10.400;2023-04-02T02:57:22;101304.34;;;5.10;65.98
51313;BME280;37397;53.226;10.400;2023-04-02T02:59:51;101302.72;;;5.09;66.32
51313;BME280;37397;53.226;10.400;2023-04-02T03:02:20;101302.78;;;5.06;66.21
51313;BME280;37397;53.226;10.400;2023-04-02T03:04:50;101293.50;;;5.05;66.05
51313;BME280;37397;53.226;10.400;2023-04-02T03:07:21;101301.97;;;5.05;65.92
51313;BME280;37397;53.226;10.400;2023-04-02T03:12:45;101316.13;;;5.05;65.76
51313;BME280;37397;53.226;10.400;2023-04-02T03:15:26;101318.16;;;5.05;65.86
51313;BME280;37397;53.226;10.400;2023-04-02T03:18:09;101323.88;;;5.01;65.86
51313;BME280;37397;53.226;10.400;2023-04-02T03:20:44;101326.72;;;5.01;65.93
51313;BME280;37397;53.226;10.400;2023-04-02T03:28:27;101348.97;;;4.99;65.86
51313;BME280;37397;53.226;10.400;2023-04-02T03:31:05;101352.22;;;4.98;66.13
51313;BME280;37397;53.226;10.400;2023-04-02T03:33:37;101362.00;;;4.93;66.11
51313;BME280;37397;53.226;10.400;2023-04-02T03:36:23;101358.78;;;4.91;65.91
51313;BME280;37397;53.226;10.400;2023-04-02T03:39:17;101368.03;;;4.95;65.93
51313;BME280;37397;53.226;10.400;2023-04-02T03:41:57;101382.16;;;4.95;66.08
51313;BME280;37397;53.226;10.400;2023-04-02T03:44:34;101383.03;;;4.92;65.99
51313;BME280;37397;53.226;10.400;2023-04-02T03:47:10;101383.50;;;4.87;66.23
51313;BME280;37397;53.226;10.400;2023-04-02T03:49:45;101401.59;;;4.93;66.23
51313;BME280;37397;53.226;10.400;2023-04-02T03:52:19;101394.75;;;4.90;66.02
51313;BME280;37397;53.226;10.400;2023-04-02T03:54:47;101400.03;;;4.88;66.21
51313;BME280;37397;53.226;10.400;2023-04-02T03:57:35;101406.50;;;4.89;66.34
51313;BME280;37397;53.226;10.400;2023-04-02T04:00:14;101415.34;;;4.91;65.81
51313;BME280;37397;53.226;10.400;2023-04-02T04:02:52;101422.25;;;4.90;65.86
51313;BME280;37397;53.226;10.400;2023-04-02T04:05:33;101420.69;;;4.85;66.13
51313;BME280;37397;53.226;10.400;2023-04-02T04:08:05;101422.34;;;4.83;66.14
51313;BME280;37397;53.226;10.400;2023-04-02T04:10:33;101425.97;;;4.83;66.37
51313;BME280;37397;53.226;10.400;2023-04-02T04:13:28;101435.69;;;4.82;65.86
51313;BME280;37397;53.226;10.400;2023-04-02T04:16:04;101446.22;;;4.82;66.05
51313;BME280;37397;53.226;10.400;2023-04-02T04:21:22;101459.91;;;4.83;66.07
51313;BME280;37397;53.226;10.400;2023-04-02T04:24:11;101459.91;;;4.83;66.14
51313;BME280;37397;53.226;10.400;2023-04-02T04:26:59;101454.69;;;4.82;66.07
51313;BME280;37397;53.226;10.400;2023-04-02T04:29:58;101472.03;;;4.84;65.95
51313;BME280;37397;53.226;10.400;2023-04-02T04:32:35;101476.06;;;4.83;65.92
51313;BME280;37397;53.226;10.400;2023-04-02T04:35:20;101484.94;;;4.85;65.66
51313;BME280;37397;53.226;10.400;2023-04-02T04:37:55;101489.00;;;4.84;66.11
51313;BME280;37397;53.226;10.400;2023-04-02T04:40:27;101486.59;;;4.82;66.14
51313;BME280;37397;53.226;10.400;2023-04-02T04:43:01;101492.66;;;4.81;66.11
51313;BME280;37397;53.226;10.400;2023-04-02T04:45:43;101497.94;;;4.79;66.02
51313;BME280;37397;53.226;10.400;2023-04-02T04:48:20;101499.09;;;4.81;66.31
51313;BME280;37397;53.226;10.400;2023-04-02T04:50:58;101512.41;;;4.84;66.36
51313;BME280;37397;53.226;10.400;2023-04-02T04:53:27;101511.19;;;4.85;66.43
51313;BME280;37397;53.226;10.400;2023-04-02T04:55:59;101511.63;;;4.84;66.29
51313;BME280;37397;53.226;10.400;2023-04-02T04:58:56;101524.53;;;4.85;66.07
51313;BME280;37397;53.226;10.400;2023-04-02T05:01:57;101529.78;;;4.83;66.08
51313;BME280;37397;53.226;10.400;2023-04-02T05:04:37;101533.47;;;4.80;65.91
51313;BME280;37397;53.226;10.400;2023-04-02T05:07:11;101536.63;;;4.85;66.17
51313;BME280;37397;53.226;10.400;2023-04-02T05:09:54;101532.63;;;4.83;66.05
51313;BME280;37397;53.226;10.400;2023-04-02T05:12:36;101541.50;;;4.85;66.17
51313;BME280;37397;53.226;10.400;2023-04-02T05:15:15;101544.34;;;4.85;66.22
51313;BME280;37397;53.226;10.400;2023-04-02T05:17:52;101547.19;;;4.81;66.03
51313;BME280;37397;53.226;10.400;2023-04-02T05:20:28;101542.34;;;4.82;65.99
51313;BME280;37397;53.226;10.400;2023-04-02T05:23:07;101557.66;;;4.84;66.25
51313;BME280;37397;53.226;10.400;2023-04-02T05:25:37;101561.31;;;4.85;66.10
51313;BME280;37397;53.226;10.400;2023-04-02T05:28:27;101556.84;;;4.84;66.13
51313;BME280;37397;53.226;10.400;2023-04-02T05:31:01;101569.78;;;4.85;66.01
51313;BME280;37397;53.226;10.400;2023-04-02T05:33:35;101568.16;;;4.84;66.24
51313;BME280;37397;53.226;10.400;2023-04-02T05:36:10;101577.84;;;4.86;66.26
51313;BME280;37397;53.226;10.400;2023-04-02T05:38:44;101578.63;;;4.87;66.13
51313;BME280;37397;53.226;10.400;2023-04-02T05:41:26;101585.09;;;4.87;66.31
51313;BME280;37397;53.226;10.400;2023-04-02T05:44:01;101584.72;;;4.85;66.38
51313;BME280;37397;53.226;10.400;2023-04-02T05:46:34;101585.91;;;4.88;66.34
51313;BME280;37397;53.226;10.400;2023-04-02T05:49:07;101587.50;;;4.89;66.42
51313;BME280;37397;53.226;10.400;2023-04-02T05:51:44;101595.56;;;4.90;66.16
51313;BME280;37397;53.226;10.400;2023-04-02T05:54:22;101599.19;;;4.91;66.09
51313;BME280;37397;53.226;10.400;2023-04-02T05:56:59;101601.63;;;4.89;65.98
51313;BME280;37397;53.226;10.400;2023-04-02T05:59:35;101606.06;;;4.90;66.05
51313;BME280;37397;53.226;10.400;2023-04-02T06:02:29;101598.81;;;4.89;65.90
51313;BME280;37397;53.226;10.400;2023-04-02T06:05:04;101610.88;;;4.93;66.29
51313;BME280;37397;53.226;10.400;2023-04-02T06:07:44;101618.13;;;4.94;65.91
51313;BME280;37397;53.226;10.400;2023-04-02T06:10:20;101616.53;;;4.93;65.81
51313;BME280;37397;53.226;10.400;2023-04-02T06:12:52;101622.94;;;4.97;66.16
51313;BME280;37397;53.226;10.400;2023-04-02T06:15:22;101628.59;;;4.97;65.91
51313;BME280;37397;53.226;10.400;2023-04-02T06:18:06;101635.09;;;4.98;65.91
51313;BME280;37397;53.226;10.400;2023-04-02T06:20:34;101634.66;;;4.99;66.13
51313;BME280;37397;53.226;10.400;2023-04-02T06:23:05;101647.97;;;4.99;65.95
51313;BME280;37397;53.226;10.400;2023-04-02T06:25:39;101639.06;;;5.00;66.01
51313;BME280;37397;53.226;10.400;2023-04-02T06:28:14;101647.94;;;5.02;65.98
51313;BME280;37397;53.226;10.400;2023-04-02T06:30:52;101672.97;;;5.04;66.11
51313;BME280;37397;53.226;10.400;2023-04-02T06:33:20;101658.41;;;5.05;65.87
51313;BME280;37397;53.226;10.400;2023-04-02T06:35:49;101674.94;;;5.10;66.02
51313;BME280;37397;53.226;10.400;2023-04-02T06:38:28;101672.53;;;5.09;66.04
51313;BME280;37397;53.226;10.400;2023-04-02T06:40:59;101664.84;;;5.09;65.71
51313;BME280;37397;53.226;10.400;2023-04-02T06:43:54;101679.34;;;5.11;66.01
51313;BME280;37397;53.226;10.400;2023-04-02T06:46:41;101680.59;;;5.10;65.66
51313;BME280;37397;53.226;10.400;2023-04-02T06:49:16;101686.56;;;5.16;65.67
51313;BME280;37397;53.226;10.400;2023-04-02T06:51:50;101698.69;;;5.17;65.45
51313;BME280;37397;53.226;10.400;2023-04-02T06:54:19;101695.84;;;5.17;65.54
51313;BME280;37397;53.226;10.400;2023-04-02T06:56:52;101710.41;;;5.19;65.95
51313;BME280;37397;53.226;10.400;2023-04-02T06:59:25;101710.78;;;5.21;65.39
51313;BME280;37397;53.226;10.400;2023-04-02T07:01:56;101710.41;;;5.19;65.46
51313;BME280;37397;53.226;10.400;2023-04-02T07:04:24;101718.00;;;5.25;65.55
51313;BME280;37397;53.226;10.400;2023-04-02T07:06:52;101721.63;;;5.26;65.36
51313;BME280;37397;53.226;10.400;2023-04-02T07:09:21;101726.06;;;5.27;65.33
51313;BME280;37397;53.226;10.400;2023-04-02T07:11:52;101730.91;;;5.30;65.35
51313;BME280;37397;53.226;10.400;2023-04-02T07:14:19;101734.88;;;5.33;65.67
51313;BME280;37397;53.226;10.400;2023-04-02T07:16:45;101745.00;;;5.34;65.16
51313;BME280;37397;53.226;10.400;2023-04-02T07:19:19;101732.88;;;5.33;65.19
51313;BME280;37397;53.226;10.400;2023-04-02T07:21:50;101730.00;;;5.37;65.47
51313;BME280;37397;53.226;10.400;2023-04-02T07:24:19;101731.63;;;5.38;65.09
51313;BME280;37397;53.226;10.400;2023-04-02T07:26:45;101746.94;;;5.40;65.12
51313;BME280;37397;53.226;10.400;2023-04-02T07:29:15;101751.34;;;5.45;65.00
51313;BME280;37397;53.226;10.400;2023-04-02T07:31:42;101739.22;;;5.44;65.05
51313;BME280;37397;53.226;10.400;2023-04-02T07:34:08;101752.53;;;5.47;65.18
51313;BME280;37397;53.226;10.400;2023-04-02T07:36:35;101753.69;;;5.50;65.03
51313;BME280;37397;53.226;10.400;2023-04-02T07:39:02;101765.84;;;5.51;64.79
51313;BME280;37397;53.226;10.400;2023-04-02T07:41:29;101761.75;;;5.52;64.77
51313;BME280;37397;53.226;10.400;2023-04-02T07:43:56;101760.59;;;5.49;64.74
51313;BME280;37397;53.226;10.400;2023-04-02T07:46:22;101765.78;;;5.54;64.49
51313;BME280;37397;53.226;10.400;2023-04-02T07:48:49;101773.09;;;5.52;64.59
51313;BME280;37397;53.226;10.400;2023-04-02T07:51:24;101784.00;;;5.53;64.41
51313;BME280;37397;53.226;10.400;2023-04-02T07:53:51;101794.91;;;5.55;64.44
51313;BME280;37397;53.226;10.400;2023-04-02T07:56:23;101784.75;;;5.57;64.20
51313;BME280;37397;53.226;10.400;2023-04-02T07:58:49;101805.81;;;5.56;64.07
51313;BME280;37397;53.226;10.400;2023-04-02T08:01:24;101810.63;;;5.59;64.35
51313;BME280;37397;53.226;10.400;2023-04-02T08:03:53;101824.34;;;5.61;64.35
51313;BME280;37397;53.226;10.400;2023-04-02T08:06:21;101818.69;;;5.61;64.14
51313;BME280;37397;53.226;10.400;2023-04-02T08:08:48;101813.81;;;5.61;64.33
51313;BME280;37397;53.226;10.400;2023-04-02T08:11:14;101815.88;;;5.61;64.06
51313;BME280;37397;53.226;10.400;2023-04-02T08:13:41;101812.25;;;5.60;64.08
51313;BME280;37397;53.226;10.400;2023-04-02T08:16:09;101821.09;;;5.62;63.82
51313;BME280;37397;53.226;10.400;2023-04-02T08:18:36;101826.34;;;5.64;63.88
51313;BME280;37397;53.226;10.400;2023-04-02T08:21:07;101832.38;;;5.66;64.08
51313;BME280;37397;53.226;10.400;2023-04-02T08:23:36;101827.50;;;5.66;64.01
51313;BME280;37397;53.226;10.400;2023-04-02T08:26:04;101832.75;;;5.68;63.91
51313;BME280;37397;53.226;10.400;2023-04-02T08:28:31;101840.47;;;5.68;64.07
51313;BME280;37397;53.226;10.400;2023-04-02T08:30:57;101843.25;;;5.71;64.00
51313;BME280;37397;53.226;10.400;2023-04-02T08:33:24;101847.69;;;5.72;63.64
51313;BME280;37397;53.226;10.400;2023-04-02T08:35:51;101848.47;;;5.73;63.62
51313;BME280;37397;53.226;10.400;2023-04-02T08:38:20;101844.38;;;5.77;63.70
51313;BME280;37397;53.226;10.400;2023-04-02T08:40:52;101853.69;;;5.78;63.68
51313;BME280;37397;53.226;10.400;2023-04-02T08:46:13;101863.38;;;5.80;63.39
51313;BME280;37397;53.226;10.400;2023-04-02T08:48:47;101863.75;;;5.82;63.37
51313;BME280;37397;53.226;10.400;2023-04-02T08:51:25;101864.16;;;5.81;63.16
51313;BME280;37397;53.226;10.400;2023-04-02T08:53:59;101856.50;;;5.81;62.99
51313;BME280;37397;53.226;10.400;2023-04-02T08:56:46;101864.56;;;5.83;63.34
51313;BME280;37397;53.226;10.400;2023-04-02T08:59:24;101868.56;;;5.85;63.39
51313;BME280;37397;53.226;10.400;2023-04-02T09:04:32;101887.13;;;5.90;63.43
51313;BME280;37397;53.226;10.400;2023-04-02T09:06:59;101891.97;;;5.93;63.72
51313;BME280;37397;53.226;10.400;2023-04-02T09:09:26;101896.84;;;5.93;63.56
51313;BME280;37397;53.226;10.400;2023-04-02T09:11:58;101893.97;;;5.96;63.52
51313;BME280;37397;53.226;10.400;2023-04-02T09:14:44;101914.56;;;6.00;63.64
51313;BME280;37397;53.226;10.400;2023-04-02T09:17:22;101903.19;;;6.04;63.55
51313;BME280;37397;53.226;10.400;2023-04-02T09:19:57;101908.81;;;6.08;63.61
51313;BME280;37397;53.226;10.400;2023-04-02T09:22:28;101916.84;;;6.13;63.80
51313;BME280;37397;53.226;10.400;2023-04-02T09:24:59;101909.59;;;6.12;63.61
51313;BME280;37397;53.226;10.400;2023-04-02T09:27:32;101922.88;;;6.18;63.60
51313;BME280;37397;53.226;10.400;2023-04-02T09:35:19;101929.66;;;6.25;63.39
51313;BME280;37397;53.226;10.400;2023-04-02T09:41:27;101941.38;;;6.27;63.33
51313;BME280;37397;53.226;10.400;2023-04-02T09:44:11;101938.50;;;6.30;62.77
51313;BME280;37397;53.226;10.400;2023-04-02T09:46:50;101946.16;;;6.33;63.22
51313;BME280;37397;53.226;10.400;2023-04-02T09:49:22;101945.69;;;6.38;63.42
51313;BME280;37397;53.226;10.400;2023-04-02T09:52:17;101958.25;;;6.37;62.71
51313;BME280;37397;53.226;10.400;2023-04-02T09:54:46;101967.94;;;6.40;62.68
51313;BME280;37397;53.226;10.400;2023-04-02T09:57:22;101961.06;;;6.41;62.51
51313;BME280;37397;53.226;10.400;2023-04-02T10:00:20;101961.84;;;6.42;62.57
51313;BME280;37397;53.226;10.400;2023-04-02T10:05:33;101967.47;;;6.45;62.62
51313;BME280;37397;53.226;10.400;2023-04-02T10:08:13;101976.38;;;6.47;62.68
51313;BME280;37397;53.226;10.400;2023-04-02T10:10:43;101969.47;;;6.48;62.68
51313;BME280;37397;53.226;10.400;2023-04-02T10:13:23;101973.16;;;6.45;62.56
51313;BME280;37397;53.226;10.400;2023-04-02T10:16:02;101984.00;;;6.50;62.45
51313;BME280;37397;53.226;10.400;2023-04-02T10:19:19;101989.31;;;6.48;61.68
51313;BME280;37397;53.226;10.400;2023-04-02T10:21:48;101987.25;;;6.52;62.18
51313;BME280;37397;53.226;10.400;2023-04-02T10:24:16;101990.09;;;6.52;62.48
51313;BME280;37397;53.226;10.400;2023-04-02T10:26:56;101988.47;;;6.51;62.06
51313;BME280;37397;53.226;10.400;2023-04-02T10:32:59;102000.59;;;6.52;61.46
51313;BME280;37397;53.226;10.400;2023-04-02T10:41:08;102002.22;;;6.53;62.06
51313;BME280;37397;53.226;10.400;2023-04-02T10:43:58;102002.16;;;6.56;61.67
51313;BME280;37397;53.226;10.400;2023-04-02T10:47:08;102004.22;;;6.56;61.42
51313;BME280;37397;53.226;10.400;2023-04-02T10:52:48;102020.75;;;6.61;61.61
51313;BME280;37397;53.226;10.400;2023-04-02T10:55:21;102031.22;;;6.68;61.99
51313;BME280;37397;53.226;10.400;2023-04-02T10:57:51;102016.59;;;6.69;61.93
51313;BME280;37397;53.226;10.400;2023-04-02T11:00:32;102004.88;;;6.67;61.64
51313;BME280;37397;53.226;10.400;2023-04-02T11:03:22;102010.13;;;6.69;61.66
51313;BME280;37397;53.226;10.400;2023-04-02T11:05:54;102025.81;;;6.77;61.85
51313;BME280;37397;53.226;10.400;2023-04-02T11:08:26;102031.44;;;6.81;61.65
51313;BME280;37397;53.226;10.400;2023-04-02T11:11:08;102029.44;;;6.81;61.75
51313;BME280;37397;53.226;10.400;2023-04-02T11:13:52;102033.84;;;6.82;61.61
51313;BME280;37397;53.226;10.400;2023-04-02T11:16:21;102044.31;;;6.89;61.85
51313;BME280;37397;53.226;10.400;2023-04-02T11:22:01;102055.63;;;6.92;61.84
51313;BME280;37397;53.226;10.400;2023-04-02T11:24:42;102060.47;;;6.96;61.81
51313;BME280;37397;53.226;10.400;2023-04-02T11:27:25;102059.22;;;6.97;60.77
51313;BME280;37397;53.226;10.400;2023-04-02T11:30:04;102059.16;;;7.00;61.32
51313;BME280;37397;53.226;10.400;2023-04-02T11:32:35;102057.50;;;7.03;61.48
51313;BME280;37397;53.226;10.400;2023-04-02T11:37:46;102058.34;;;7.00;60.56
51313;BME280;37397;53.226;10.400;2023-04-02T11:42:44;102073.28;;;7.07;60.96
51313;BME280;37397;53.226;10.400;2023-04-02T11:50:33;102063.06;;;7.14;60.83
51313;BME280;37397;53.226;10.400;2023-04-02T11:55:37;102082.00;;;7.20;61.00
51313;BME280;37397;53.226;10.400;2023-04-02T11:58:26;102076.34;;;7.20;60.21
51313;BME280;37397;53.226;10.400;2023-04-02T12:03:55;102081.53;;;7.25;60.35
51313;BME280;37397;53.226;10.400;2023-04-02T12:09:19;102072.53;;;7.30;60.84
51313;BME280;37397;53.226;10.400;2023-04-02T12:11:50;102089.56;;;7.30;60.68
51313;BME280;37397;53.226;10.400;2023-04-02T12:14:43;102094.75;;;7.36;60.63
51313;BME280;37397;53.226;10.400;2023-04-02T12:17:17;102095.53;;;7.40;60.24
51313;BME280;37397;53.226;10.400;2023-04-02T12:19:54;102118.63;;;7.42;60.41
51313;BME280;37397;53.226;10.400;2023-04-02T12:22:27;102104.41;;;7.42;60.19
51313;BME280;37397;53.226;10.400;2023-04-02T12:24:59;102111.66;;;7.46;60.20
51313;BME280;37397;53.226;10.400;2023-04-02T12:27:28;102110.81;;;7.49;60.32
51313;BME280;37397;53.226;10.400;2023-04-02T12:30:10;102116.47;;;7.49;59.82
51313;BME280;37397;53.226;10.400;2023-04-02T12:32:37;102122.53;;;7.52;60.20
51313;BME280;37397;53.226;10.400;2023-04-02T12:35:36;102108.75;;;7.50;59.24
51313;BME280;37397;53.226;10.400;2023-04-02T12:38:02;102109.88;;;7.56;59.64
51313;BME280;37397;53.226;10.400;2023-04-02T12:40:28;102104.59;;;7.58;59.77
51313;BME280;37397;53.226;10.400;2023-04-02T12:42:55;102117.56;;;7.59;60.18
51313;BME280;37397;53.226;10.400;2023-04-02T12:45:27;102117.56;;;7.59;59.67
51313;BME280;37397;53.226;10.400;2023-04-02T12:47:56;102119.53;;;7.62;59.97
51313;BME280;37397;53.226;10.400;2023-04-02T12:50:23;102117.88;;;7.65;59.79
51313;BME280;37397;53.226;10.400;2023-04-02T12:52:51;102122.31;;;7.66;59.91
51313;BME280;37397;53.226;10.400;2023-04-02T12:55:22;102134.09;;;7.68;59.77
51313;BME280;37397;53.226;10.400;2023-04-02T12:57:57;102126.34;;;7.69;59.61
51313;BME280;37397;53.226;10.400;2023-04-02T13:02:58;102138.44;;;7.73;59.24
51313;BME280;37397;53.226;10.400;2023-04-02T13:05:47;102132.78;;;7.73;59.53
51313;BME280;37397;53.226;10.400;2023-04-02T13:08:17;102142.47;;;7.75;59.45
51313;BME280;37397;53.226;10.400;2023-04-02T13:10:51;102135.16;;;7.78;59.13
51313;BME280;37397;53.226;10.400;2023-04-02T13:13:26;102121.31;;;7.80;59.91
51313;BME280;37397;53.226;10.400;2023-04-02T13:18:36;102126.94;;;7.83;59.56
51313;BME280;37397;53.226;10.400;2023-04-02T13:23:46;102140.63;;;7.92;59.09
51313;BME280;37397;53.226;10.400;2023-04-02T13:26:27;102127.63;;;7.91;58.53
51313;BME280;37397;53.226;10.400;2023-04-02T13:31:36;102130.72;;;8.00;59.35
51313;BME280;37397;53.226;10.400;2023-04-02T13:34:03;102139.63;;;8.02;59.27
51313;BME280;37397;53.226;10.400;2023-04-02T13:36:29;102125.41;;;8.02;59.09
51313;BME280;37397;53.226;10.400;2023-04-02T13:38:56;102138.34;;;8.07;59.29
51313;BME280;37397;53.226;10.400;2023-04-02T13:41:27;102135.41;;;8.11;58.97
51313;BME280;37397;53.226;10.400;2023-04-02T13:43:57;102145.56;;;8.12;59.47
51313;BME280;37397;53.226;10.400;2023-04-02T13:46:28;102149.13;;;8.16;59.32
51313;BME280;37397;53.226;10.400;2023-04-02T13:48:56;102158.06;;;8.18;59.21
51313;BME280;37397;53.226;10.400;2023-04-02T13:51:34;102152.75;;;8.20;59.14
51313;BME280;37397;53.226;10.400;2023-04-02T13:54:06;102153.97;;;8.19;59.29
51313;BME280;37397;53.226;10.400;2023-04-02T13:56:33;102148.22;;;8.22;59.43
51313;BME280;37397;53.226;10.400;2023-04-02T13:59:00;102165.25;;;8.26;59.20
51313;BME280;37397;53.226;10.400;2023-04-02T14:01:27;102162.41;;;8.26;59.17
51313;BME280;37397;53.226;10.400;2023-04-02T14:03:54;102164.38;;;8.29;59.11
51313;BME280;37397;53.226;10.400;2023-04-02T14:09:26;102173.63;;;8.33;59.04
51313;BME280;37397;53.226;10.400;2023-04-02T14:12:09;102178.09;;;8.34;59.17
51313;BME280;37397;53.226;10.400;2023-04-02T14:14:47;102174.38;;;8.37;59.20
51313;BME280;37397;53.226;10.400;2023-04-02T14:17:40;102170.72;;;8.37;59.21
51313;BME280;37397;53.226;10.400;2023-04-02T14:25:56;102183.66;;;8.42;58.77
51313;BME280;37397;53.226;10.400;2023-04-02T14:28:45;102181.63;;;8.42;59.03
51313;BME280;37397;53.226;10.400;2023-04-02T14:31:26;102186.50;;;8.42;58.96
51313;BME280;37397;53.226;10.400;2023-04-02T14:39:40;102195.75;;;8.49;59.66
51313;BME280;37397;53.226;10.400;2023-04-02T14:42:12;102203.84;;;8.51;59.08
51313;BME280;37397;53.226;10.400;2023-04-02T14:44:47;102198.16;;;8.51;58.78
51313;BME280;37397;53.226;10.400;2023-04-02T14:47:23;102180.81;;;8.42;58.64
51313;BME280;37397;53.226;10.400;2023-04-02T14:49:54;102192.09;;;8.49;58.95
51313;BME280;37397;53.226;10.400;2023-04-02T14:52:23;102207.44;;;8.55;58.90
51313;BME280;37397;53.226;10.400;2023-04-02T14:55:00;102215.97;;;8.55;58.84
51313;BME280;37397;53.226;10.400;2023-04-02T14:57:30;102212.72;;;8.56;59.05
51313;BME280;37397;53.226;10.400;2023-04-02T15:02:41;102222.84;;;8.57;58.98
51313;BME280;37397;53.226;10.400;2023-04-02T15:05:27;102225.25;;;8.59;58.78
51313;BME280;37397;53.226;10.400;2023-04-02T15:08:20;102230.94;;;8.59;58.73
51313;BME280;37397;53.226;10.400;2023-04-02T15:13:38;102230.13;;;8.58;58.87
51313;BME280;37397;53.226;10.400;2023-04-02T15:16:18;102230.56;;;8.57;59.53
51313;BME280;37397;53.226;10.400;2023-04-02T15:18:49;102228.09;;;8.59;58.88
51313;BME280;37397;53.226;10.400;2023-04-02T15:23:58;102237.81;;;8.62;58.80
51313;BME280;37397;53.226;10.400;2023-04-02T15:26:44;102233.72;;;8.63;58.63
51313;BME280;37397;53.226;10.400;2023-04-02T15:29:46;102245.09;;;8.63;59.07
51313;BME280;37397;53.226;10.400;2023-04-02T15:32:29;102249.19;;;8.62;59.42